createdAt,value
2017-06-03T00:00:52.610Z,14.87
2017-06-03T00:03:20.702Z,12.43
2017-06-03T00:05:48.777Z,17.53
2017-06-03T00:08:16.848Z,16.27
2017-06-03T00:10:44.926Z,15.80
2017-06-03T00:13:13.043Z,15.70
2017-06-03T00:15:41.172Z,17.10
2017-06-03T00:18:10.017Z,28.23
2017-06-03T00:20:38.107Z,15.23
2017-06-03T00:23:06.177Z,14.47
2017-06-03T00:25:34.272Z,17.93
2017-06-03T00:28:02.353Z,14.23
2017-06-03T00:30:30.418Z,15.73
2017-06-03T00:32:58.494Z,18.97
2017-06-03T00:35:26.568Z,16.90
2017-06-03T00:37:54.668Z,15.47
2017-06-03T00:40:22.736Z,16.23
2017-06-03T00:42:50.834Z,17.33
2017-06-03T00:45:18.908Z,16.30
2017-06-03T00:47:47.010Z,18.00
2017-06-03T00:50:15.105Z,17.23
2017-06-03T00:52:43.175Z,15.00
2017-06-03T00:55:11.256Z,15.80
2017-06-03T00:57:39.339Z,18.03
2017-06-03T01:00:07.444Z,17.00
2017-06-03T01:02:35.539Z,17.93
2017-06-03T01:05:03.643Z,17.47
2017-06-03T01:07:32.496Z,16.33
2017-06-03T01:10:00.576Z,17.23
2017-06-03T01:12:28.687Z,17.30
2017-06-03T01:14:57.534Z,17.20
2017-06-03T01:17:25.612Z,19.30
2017-06-03T01:19:53.687Z,16.07
2017-06-03T01:22:21.755Z,14.97
2017-06-03T01:24:49.856Z,15.10
2017-06-03T01:27:17.920Z,17.80
2017-06-03T01:29:46.003Z,16.00
2017-06-03T01:32:14.844Z,15.70
2017-06-03T01:34:42.919Z,20.20
2017-06-03T01:37:11.020Z,16.63
2017-06-03T01:39:39.108Z,14.90
2017-06-03T01:42:07.183Z,19.30
2017-06-03T01:44:36.036Z,15.63
2017-06-03T01:47:04.115Z,13.80
2017-06-03T01:49:32.208Z,15.00
2017-06-03T01:52:00.833Z,16.70
2017-06-03T01:54:28.895Z,17.27
2017-06-03T01:56:56.980Z,19.23
2017-06-03T01:59:25.047Z,18.17
2017-06-03T02:01:53.127Z,33.87
2017-06-03T02:04:21.201Z,29.90
2017-06-03T02:06:49.298Z,31.47
2017-06-03T02:09:17.807Z,30.53
2017-06-03T02:11:45.889Z,23.10
2017-06-03T02:14:13.974Z,23.20
2017-06-03T02:16:42.819Z,19.27
2017-06-03T02:19:10.899Z,19.00
2017-06-03T02:21:38.973Z,15.30
2017-06-03T02:24:07.064Z,14.57
2017-06-03T02:26:35.136Z,14.90
2017-06-03T02:29:03.223Z,14.30
2017-06-03T02:31:32.098Z,15.97
2017-06-03T02:34:00.173Z,17.40
2017-06-03T02:36:28.264Z,17.17
2017-06-03T02:38:57.101Z,18.70
2017-06-03T02:41:25.196Z,18.43
2017-06-03T02:43:53.267Z,17.67
2017-06-03T02:46:21.364Z,15.17
2017-06-03T02:48:49.431Z,14.63
2017-06-03T02:51:17.530Z,16.33
2017-06-03T02:53:45.607Z,17.67
2017-06-03T02:56:13.671Z,15.60
2017-06-03T02:58:41.752Z,15.07
2017-06-03T03:01:09.824Z,15.47
2017-06-03T03:03:37.915Z,15.70
2017-06-03T03:06:05.995Z,17.10
2017-06-03T03:08:34.075Z,15.30
2017-06-03T03:11:02.156Z,16.53
2017-06-03T03:13:30.259Z,15.33
2017-06-03T03:15:58.324Z,15.23
2017-06-03T03:18:26.397Z,18.67
2017-06-03T03:20:54.475Z,16.33
2017-06-03T03:23:22.543Z,15.47
2017-06-03T03:25:50.618Z,16.77
2017-06-03T03:28:18.692Z,17.60
2017-06-03T03:30:46.768Z,14.80
2017-06-03T03:33:15.617Z,15.50
2017-06-03T03:35:43.715Z,16.17
2017-06-03T03:38:11.881Z,14.33
2017-06-03T03:40:39.949Z,15.93
2017-06-03T03:43:08.028Z,15.47
2017-06-03T03:45:36.095Z,14.77
2017-06-03T03:48:04.183Z,16.23
2017-06-03T03:50:32.279Z,17.77
2017-06-03T03:53:00.359Z,17.57
2017-06-03T03:55:28.431Z,16.50
2017-06-03T03:57:56.514Z,14.90
2017-06-03T04:00:24.632Z,16.20
2017-06-03T04:02:52.699Z,16.73
2017-06-03T04:05:20.771Z,21.10
2017-06-03T04:07:48.844Z,24.43
2017-06-03T04:10:16.923Z,21.13
2017-06-03T04:12:44.992Z,17.40
2017-06-03T04:15:13.072Z,16.27
2017-06-03T04:17:41.147Z,18.43
2017-06-03T04:20:09.236Z,17.90
2017-06-03T04:22:37.307Z,21.30
2017-06-03T04:25:05.435Z,17.13
2017-06-03T04:27:33.517Z,15.80
2017-06-03T04:30:01.607Z,17.83
2017-06-03T04:32:29.688Z,17.83
2017-06-03T04:34:57.768Z,16.87
2017-06-03T04:37:25.848Z,18.80
2017-06-03T04:39:54.767Z,19.67
2017-06-03T04:42:22.857Z,17.67
2017-06-03T04:44:50.936Z,15.90
2017-06-03T04:47:19.008Z,18.57
2017-06-03T04:49:47.099Z,16.10
2017-06-03T04:52:15.167Z,17.67
2017-06-03T04:54:43.260Z,17.03
2017-06-03T04:57:11.331Z,16.60
2017-06-03T04:59:39.426Z,17.60
2017-06-03T05:02:07.503Z,16.50
2017-06-03T05:04:36.372Z,16.80
2017-06-03T05:07:04.452Z,16.17
2017-06-03T05:09:32.523Z,17.77
2017-06-03T05:12:00.607Z,15.30
2017-06-03T05:14:29.464Z,14.83
2017-06-03T05:16:57.547Z,15.67
2017-06-03T05:19:25.622Z,17.90
2017-06-03T05:21:53.706Z,17.27
2017-06-03T05:24:22.551Z,15.13
2017-06-03T05:26:50.643Z,17.30
2017-06-03T05:29:18.724Z,16.87
2017-06-03T05:31:46.799Z,13.97
2017-06-03T05:34:14.875Z,13.73
2017-06-03T05:36:42.954Z,19.27
2017-06-03T05:39:11.064Z,14.30
2017-06-03T05:41:39.131Z,13.93
2017-06-03T05:44:07.222Z,14.20
2017-06-03T05:46:35.295Z,14.23
2017-06-03T05:49:03.836Z,12.67
2017-06-03T05:51:32.672Z,12.00
2017-06-03T05:54:00.747Z,12.87
2017-06-03T05:56:28.832Z,10.90
2017-06-03T05:58:57.015Z,12.43
2017-06-03T06:01:25.099Z,14.70
2017-06-03T06:03:53.171Z,10.93
2017-06-03T06:06:21.250Z,12.30
2017-06-03T06:08:49.320Z,17.93
2017-06-03T06:11:17.408Z,9.70
2017-06-03T06:13:46.243Z,12.40
2017-06-03T06:16:14.315Z,10.80
2017-06-03T06:18:42.393Z,10.60
2017-06-03T06:21:10.472Z,12.50
2017-06-03T06:23:38.556Z,10.50
2017-06-03T06:26:06.625Z,10.00
2017-06-03T06:28:34.727Z,12.27
2017-06-03T06:31:02.808Z,9.77
2017-06-03T06:33:31.647Z,14.90
2017-06-03T06:35:59.730Z,10.97
2017-06-03T06:38:27.795Z,8.90
2017-06-03T06:40:55.886Z,10.77
2017-06-03T06:43:23.952Z,9.40
2017-06-03T06:45:52.040Z,9.67
2017-06-03T06:48:20.148Z,11.10
2017-06-03T06:50:48.251Z,11.93
2017-06-03T06:53:16.327Z,11.00
2017-06-03T06:55:44.391Z,10.60
2017-06-03T06:58:12.466Z,9.60
2017-06-03T07:00:40.556Z,10.10
2017-06-03T07:03:08.630Z,10.87
2017-06-03T07:05:36.704Z,9.30
2017-06-03T07:08:04.780Z,11.87
2017-06-03T07:10:32.871Z,10.57
2017-06-03T07:13:00.963Z,9.97
2017-06-03T07:15:29.799Z,14.00
2017-06-03T07:17:57.871Z,10.13
2017-06-03T07:20:25.960Z,11.77
2017-06-03T07:22:54.032Z,12.60
2017-06-03T07:25:22.098Z,9.97
2017-06-03T07:27:50.176Z,10.03
2017-06-03T07:30:18.263Z,12.10
2017-06-03T07:32:46.439Z,13.57
2017-06-03T07:35:14.535Z,10.73
2017-06-03T07:37:43.410Z,11.07
2017-06-03T07:40:11.544Z,10.40
2017-06-03T07:42:39.632Z,10.43
2017-06-03T07:45:07.706Z,10.43
2017-06-03T07:47:35.784Z,10.37
2017-06-03T07:50:03.847Z,11.00
2017-06-03T07:52:31.936Z,12.63
2017-06-03T07:55:00.011Z,11.97
2017-06-03T07:57:28.116Z,11.10
2017-06-03T07:59:56.192Z,12.27
2017-06-03T08:02:24.265Z,14.70
2017-06-03T08:04:52.339Z,11.30
2017-06-03T08:07:20.408Z,12.80
2017-06-03T08:09:48.488Z,12.27
2017-06-03T08:12:16.571Z,12.37
2017-06-03T08:14:44.671Z,15.53
2017-06-03T08:17:12.748Z,11.90
2017-06-03T08:19:40.852Z,12.40
2017-06-03T08:22:09.691Z,10.87
2017-06-03T08:24:37.756Z,11.80
2017-06-03T08:27:05.831Z,10.97
2017-06-03T08:29:33.909Z,14.10
2017-06-03T08:32:01.999Z,10.93
2017-06-03T08:34:30.077Z,11.03
2017-06-03T08:36:58.162Z,13.67
2017-06-03T08:39:26.243Z,11.37
2017-06-03T08:41:54.343Z,11.27
2017-06-03T08:44:22.415Z,10.13
2017-06-03T08:46:50.484Z,11.53
2017-06-03T08:49:18.557Z,11.87
2017-06-03T08:51:46.635Z,11.07
2017-06-03T08:54:14.754Z,9.60
2017-06-03T08:56:42.828Z,8.50
2017-06-03T08:59:10.904Z,10.70
2017-06-03T09:01:38.981Z,9.73
2017-06-03T09:04:07.136Z,10.07
2017-06-03T09:06:35.215Z,9.07
2017-06-03T09:09:03.299Z,10.53
2017-06-03T09:11:31.464Z,9.87
2017-06-03T09:13:59.540Z,11.43
2017-06-03T09:16:27.671Z,10.13
2017-06-03T09:18:55.911Z,8.93
2017-06-03T09:21:23.988Z,9.07
2017-06-03T09:23:52.051Z,9.30
2017-06-03T09:26:20.148Z,9.53
2017-06-03T09:28:48.216Z,9.13
2017-06-03T09:31:16.278Z,10.93
2017-06-03T09:33:45.127Z,11.70
2017-06-03T09:36:13.207Z,9.07
2017-06-03T09:38:41.283Z,9.20
2017-06-03T09:41:09.356Z,9.10
2017-06-03T09:43:37.431Z,12.20
2017-06-03T09:46:05.495Z,9.47
2017-06-03T09:48:33.767Z,8.93
2017-06-03T09:51:01.848Z,11.80
2017-06-03T09:53:29.922Z,9.47
2017-06-03T09:55:57.992Z,9.43
2017-06-03T09:58:26.063Z,13.17
2017-06-03T10:00:54.227Z,11.30
2017-06-03T10:03:22.315Z,10.20
2017-06-03T10:05:50.399Z,9.70
2017-06-03T10:08:18.476Z,9.80
2017-06-03T10:10:47.348Z,10.27
2017-06-03T10:13:15.419Z,10.70
2017-06-03T10:15:43.493Z,11.03
2017-06-03T10:18:11.568Z,11.47
2017-06-03T10:20:39.635Z,11.60
2017-06-03T10:23:07.717Z,12.90
2017-06-03T10:25:35.795Z,11.07
2017-06-03T10:28:03.959Z,11.13
2017-06-03T10:30:32.031Z,11.43
2017-06-03T10:33:00.128Z,10.67
2017-06-03T10:35:28.199Z,10.37
2017-06-03T10:37:57.111Z,11.20
2017-06-03T10:40:25.191Z,11.10
2017-06-03T10:42:53.267Z,12.93
2017-06-03T10:45:21.444Z,14.77
2017-06-03T10:47:49.521Z,14.07
2017-06-03T10:50:17.631Z,12.23
2017-06-03T10:52:45.725Z,36.83
2017-06-03T10:55:13.793Z,11.90
2017-06-03T10:57:41.879Z,13.37
2017-06-03T11:00:10.716Z,13.07
2017-06-03T11:02:38.799Z,11.10
2017-06-03T11:05:06.890Z,12.87
2017-06-03T11:07:35.063Z,13.60
2017-06-03T11:10:03.142Z,11.17
2017-06-03T11:12:31.224Z,11.03
2017-06-03T11:14:59.312Z,13.33
2017-06-03T11:17:28.172Z,14.50
2017-06-03T11:19:56.255Z,20.90
2017-06-03T11:22:24.343Z,18.40
2017-06-03T11:24:53.215Z,15.40
2017-06-03T11:27:21.291Z,12.10
2017-06-03T11:29:49.377Z,12.53
2017-06-03T11:32:17.462Z,14.90
2017-06-03T11:34:46.303Z,12.30
2017-06-03T11:37:14.392Z,12.30
2017-06-03T11:39:42.473Z,11.73
2017-06-03T11:42:10.555Z,10.20
2017-06-03T11:44:39.402Z,9.50
2017-06-03T11:47:07.481Z,10.63
2017-06-03T11:49:35.569Z,8.97
2017-06-03T11:52:03.675Z,10.17
2017-06-03T11:54:31.856Z,10.27
2017-06-03T11:57:00.695Z,9.53
2017-06-03T11:59:28.860Z,9.17
2017-06-03T12:01:56.947Z,9.57
2017-06-03T12:04:25.023Z,8.90
2017-06-03T12:06:53.097Z,11.37
2017-06-03T12:09:21.181Z,8.60
2017-06-03T12:11:49.265Z,9.27
2017-06-03T12:14:17.348Z,11.03
2017-06-03T12:16:45.428Z,10.77
2017-06-03T12:19:13.495Z,9.60
2017-06-03T12:21:42.347Z,9.90
2017-06-03T12:24:10.420Z,9.50
2017-06-03T12:26:38.876Z,7.80
2017-06-03T12:29:06.951Z,8.17
2017-06-03T12:31:35.169Z,9.00
2017-06-03T12:34:03.247Z,7.93
2017-06-03T12:36:31.346Z,8.70
2017-06-03T12:38:59.415Z,9.37
2017-06-03T12:41:27.480Z,8.80
2017-06-03T12:43:56.331Z,8.17
2017-06-03T12:46:24.412Z,8.00
2017-06-03T12:48:52.484Z,8.93
2017-06-03T12:51:20.554Z,9.93
2017-06-03T12:53:48.672Z,8.80
2017-06-03T12:56:16.743Z,10.03
2017-06-03T12:58:44.851Z,8.73
2017-06-03T13:01:12.937Z,9.30
2017-06-03T13:03:41.015Z,11.73
2017-06-03T13:06:09.119Z,8.30
2017-06-03T13:08:48.899Z,8.83
2017-06-03T13:11:16.975Z,8.50
2017-06-03T13:13:45.057Z,10.20
2017-06-03T13:16:13.144Z,9.90
2017-06-03T13:18:41.219Z,9.00
2017-06-03T13:21:09.313Z,10.63
2017-06-03T13:23:37.388Z,9.00
2017-06-03T13:26:05.463Z,8.03
2017-06-03T13:28:33.536Z,7.30
2017-06-03T13:31:02.388Z,10.40
2017-06-03T13:33:30.473Z,8.50
2017-06-03T13:35:58.545Z,8.40
2017-06-03T13:38:26.659Z,9.30
2017-06-03T13:40:54.740Z,11.50
2017-06-03T13:43:22.851Z,11.80
2017-06-03T13:45:50.924Z,9.93
2017-06-03T13:48:18.995Z,8.40
2017-06-03T13:50:47.155Z,12.87
2017-06-03T13:53:15.228Z,8.70
2017-06-03T13:55:43.328Z,7.77
2017-06-03T13:58:11.400Z,8.40
2017-06-03T14:00:39.484Z,8.07
2017-06-03T14:03:07.587Z,12.30
2017-06-03T14:05:36.423Z,9.00
2017-06-03T14:08:04.515Z,10.10
2017-06-03T14:10:32.604Z,9.87
2017-06-03T14:13:00.691Z,8.10
2017-06-03T14:15:28.780Z,12.87
2017-06-03T14:17:56.880Z,10.43
2017-06-03T14:20:24.955Z,11.10
2017-06-03T14:22:53.051Z,10.80
2017-06-03T14:25:21.151Z,10.50
2017-06-03T14:27:49.240Z,12.20
2017-06-03T14:30:17.416Z,8.50
2017-06-03T14:32:45.485Z,11.53
2017-06-03T14:35:13.561Z,24.03
2017-06-03T14:37:41.623Z,9.43
2017-06-03T14:40:09.812Z,9.73
2017-06-03T14:42:37.878Z,11.50
2017-06-03T14:45:05.956Z,13.30
2017-06-03T14:47:34.128Z,11.07
2017-06-03T14:50:02.244Z,10.47
2017-06-03T14:52:30.326Z,10.30
2017-06-03T14:54:58.397Z,12.67
2017-06-03T14:57:27.844Z,10.43
2017-06-03T14:59:56.687Z,12.67
2017-06-03T15:02:24.784Z,10.27
2017-06-03T15:04:53.624Z,9.10
2017-06-03T15:07:21.700Z,14.73
2017-06-03T15:09:49.783Z,10.80
2017-06-03T15:12:17.854Z,11.57
2017-06-03T15:14:46.059Z,12.87
2017-06-03T15:17:14.140Z,12.53
2017-06-03T15:19:42.211Z,10.93
2017-06-03T15:22:11.300Z,11.43
2017-06-03T15:24:39.399Z,11.57
2017-06-03T15:27:07.488Z,10.00
2017-06-03T15:29:35.635Z,10.50
2017-06-03T15:32:04.672Z,10.70
2017-06-03T15:34:32.747Z,19.50
2017-06-03T15:37:03.178Z,16.80
2017-06-03T15:39:31.247Z,12.83
2017-06-03T15:41:59.340Z,15.83
2017-06-03T15:44:27.524Z,14.20
2017-06-03T15:46:55.630Z,14.93
2017-06-03T15:49:23.704Z,11.20
2017-06-03T15:51:51.770Z,11.00
2017-06-03T15:54:20.697Z,10.83
2017-06-03T15:56:48.765Z,10.60
2017-06-03T15:59:16.848Z,14.63
2017-06-03T16:01:44.918Z,14.33
2017-06-03T16:04:13.010Z,11.90
2017-06-03T16:06:41.089Z,15.67
2017-06-03T16:09:09.163Z,13.33
2017-06-03T16:11:37.236Z,13.83
2017-06-03T16:14:05.305Z,13.80
2017-06-03T16:16:33.393Z,15.70
2017-06-03T16:19:01.463Z,16.10
2017-06-03T16:21:29.540Z,13.40
2017-06-03T16:23:57.611Z,16.40
2017-06-03T16:26:25.690Z,12.63
2017-06-03T16:28:53.770Z,16.43
2017-06-03T16:31:22.656Z,18.33
2017-06-03T16:33:50.743Z,20.77
2017-06-03T16:36:19.583Z,17.60
2017-06-03T16:38:47.668Z,17.77
2017-06-03T16:41:16.151Z,16.77
2017-06-03T16:43:44.263Z,14.13
2017-06-03T16:46:13.229Z,16.23
2017-06-03T16:48:41.303Z,15.77
2017-06-03T16:51:09.384Z,16.87
2017-06-03T16:53:37.443Z,18.27
2017-06-03T16:56:05.519Z,17.27
2017-06-03T16:58:33.591Z,16.90
2017-06-03T17:01:01.671Z,17.23
2017-06-03T17:03:29.858Z,20.40
2017-06-03T17:05:58.714Z,17.00
2017-06-03T17:08:26.823Z,16.60
2017-06-03T17:10:55.715Z,16.10
2017-06-03T17:13:24.588Z,16.50
2017-06-03T17:15:52.651Z,16.53
2017-06-03T17:18:20.728Z,15.63
2017-06-03T17:20:48.820Z,23.47
2017-06-03T17:23:17.681Z,18.93
2017-06-03T17:25:45.742Z,16.17
2017-06-03T17:28:13.827Z,16.20
2017-06-03T17:30:42.004Z,16.20
2017-06-03T17:33:10.144Z,19.57
2017-06-03T17:35:38.224Z,18.00
2017-06-03T17:38:06.303Z,14.73
2017-06-03T17:40:34.387Z,15.83
2017-06-03T17:43:02.607Z,20.47
2017-06-03T17:45:30.690Z,24.37
2017-06-03T17:47:58.776Z,23.47
2017-06-03T17:50:26.868Z,16.43
2017-06-03T17:52:54.950Z,25.30
2017-06-03T17:55:23.043Z,16.03
2017-06-03T17:57:51.116Z,27.07
2017-06-03T18:00:19.183Z,14.00
2017-06-03T18:02:47.259Z,15.47
2017-06-03T18:05:15.328Z,15.73
2017-06-03T18:07:43.415Z,16.20
2017-06-03T18:10:12.251Z,16.90
2017-06-03T18:12:40.331Z,27.50
2017-06-03T18:15:08.400Z,14.57
2017-06-03T18:17:36.506Z,16.13
2017-06-03T18:20:04.572Z,14.90
2017-06-03T18:22:32.655Z,27.93
2017-06-03T18:25:00.751Z,20.80
2017-06-03T18:27:35.218Z,18.10
2017-06-03T18:30:03.304Z,19.77
2017-06-03T18:32:31.380Z,17.33
2017-06-03T18:34:59.469Z,17.77
2017-06-03T18:37:27.600Z,18.53
2017-06-03T18:39:55.700Z,17.20
2017-06-03T18:42:23.781Z,19.53
2017-06-03T18:44:51.852Z,18.30
2017-06-03T18:47:19.939Z,17.97
2017-06-03T18:49:48.115Z,20.80
2017-06-03T18:52:16.200Z,22.00
2017-06-03T18:54:45.056Z,19.30
2017-06-03T18:57:13.167Z,24.67
2017-06-03T18:59:41.244Z,20.97
2017-06-03T19:02:10.172Z,18.93
2017-06-03T19:04:38.247Z,22.20
2017-06-03T19:07:06.315Z,22.00
2017-06-03T19:09:34.417Z,19.13
2017-06-03T19:12:02.507Z,22.67
2017-06-03T19:14:31.373Z,17.90
2017-06-03T19:16:59.453Z,19.60
2017-06-03T19:19:27.911Z,19.77
2017-06-03T19:21:55.990Z,17.60
2017-06-03T19:24:24.104Z,17.90
2017-06-03T19:26:52.984Z,23.13
2017-06-03T19:29:21.065Z,23.93
2017-06-03T19:31:49.142Z,25.97
2017-06-03T19:34:18.203Z,25.40
2017-06-03T19:36:46.295Z,22.77
2017-06-03T19:39:14.375Z,19.53
2017-06-03T19:41:42.455Z,23.23
2017-06-03T19:44:11.296Z,20.90
2017-06-03T19:46:39.412Z,22.33
2017-06-03T19:49:07.534Z,22.83
2017-06-03T19:51:35.612Z,22.43
2017-06-03T19:54:03.719Z,21.00
2017-06-03T19:56:32.576Z,51.53
2017-06-03T19:59:00.659Z,31.67
2017-06-03T20:01:28.742Z,23.90
2017-06-03T20:03:56.845Z,22.57
2017-06-03T20:06:25.709Z,26.63
2017-06-03T20:08:53.815Z,24.87
2017-06-03T20:11:22.656Z,24.47
2017-06-03T20:13:50.728Z,33.03
2017-06-03T20:16:18.848Z,26.90
2017-06-03T20:18:47.684Z,21.60
2017-06-03T20:21:15.776Z,21.20
2017-06-03T20:23:43.847Z,17.53
2017-06-03T20:26:11.999Z,21.30
2017-06-03T20:28:40.088Z,19.67
2017-06-03T20:31:08.183Z,20.53
2017-06-03T20:33:36.261Z,21.07
2017-06-03T20:36:04.342Z,23.40
2017-06-03T20:38:33.191Z,18.90
2017-06-03T20:41:01.287Z,25.57
2017-06-03T20:43:29.360Z,38.63
2017-06-03T20:45:57.446Z,27.73
2017-06-03T20:48:25.535Z,18.80
2017-06-03T20:50:54.387Z,19.30
2017-06-03T20:53:22.455Z,17.50
2017-06-03T20:55:50.584Z,19.33
2017-06-03T20:58:18.669Z,19.53
2017-06-03T21:00:46.760Z,20.60
2017-06-03T21:03:14.841Z,19.53
2017-06-03T21:05:42.919Z,21.90
2017-06-03T21:08:11.076Z,22.57
2017-06-03T21:10:39.185Z,60.67
2017-06-03T21:13:07.268Z,113.60
2017-06-03T21:15:36.117Z,93.60
2017-06-03T21:18:04.219Z,118.70
2017-06-03T21:20:32.309Z,45.20
2017-06-03T21:23:00.401Z,43.63
2017-06-03T21:25:28.507Z,24.93
2017-06-03T21:27:56.592Z,41.30
2017-06-03T21:30:24.700Z,65.03
2017-06-03T21:32:53.563Z,224.80
2017-06-03T21:35:21.660Z,163.53
2017-06-03T21:37:49.734Z,96.43
2017-06-03T21:40:20.134Z,34.00
2017-06-03T21:42:48.208Z,54.30
2017-06-03T21:45:16.299Z,73.87
2017-06-03T21:47:44.371Z,112.87
2017-06-03T21:50:12.462Z,48.73
2017-06-03T21:52:41.311Z,65.60
2017-06-03T21:55:09.399Z,104.90
2017-06-03T21:57:37.488Z,137.20
2017-06-03T22:00:06.335Z,36.33
2017-06-03T22:02:34.454Z,39.10
2017-06-03T22:05:03.308Z,41.67
2017-06-03T22:07:31.483Z,41.33
2017-06-03T22:09:59.559Z,20.27
2017-06-03T22:12:27.643Z,21.03
2017-06-03T22:14:55.715Z,20.03
2017-06-03T22:17:23.799Z,21.10
2017-06-03T22:19:51.944Z,30.40
2017-06-03T22:22:20.020Z,19.10
2017-06-03T22:24:48.108Z,19.77
2017-06-03T22:27:16.290Z,28.77
2017-06-03T22:29:45.276Z,17.80
2017-06-03T22:32:13.348Z,17.70
2017-06-03T22:34:41.525Z,21.83
2017-06-03T22:37:09.600Z,17.20
2017-06-03T22:39:37.668Z,16.53
2017-06-03T22:42:05.753Z,15.53
2017-06-03T22:44:33.845Z,20.70
2017-06-03T22:47:02.016Z,20.33
2017-06-03T22:49:31.050Z,19.00
2017-06-03T22:51:59.132Z,16.33
2017-06-03T22:54:27.203Z,16.00
2017-06-03T22:56:55.331Z,20.20
2017-06-03T22:59:23.404Z,19.20
2017-06-03T23:01:51.475Z,21.60
2017-06-03T23:04:20.319Z,20.83
2017-06-03T23:06:48.395Z,22.57
2017-06-03T23:09:16.479Z,21.23
2017-06-03T23:11:44.555Z,23.63
2017-06-03T23:14:12.631Z,25.10
2017-06-03T23:16:40.699Z,25.73
2017-06-03T23:19:08.804Z,27.13
2017-06-03T23:21:36.877Z,25.73
2017-06-03T23:24:05.724Z,23.50
2017-06-03T23:26:33.800Z,22.83
2017-06-03T23:29:01.909Z,26.57
2017-06-03T23:31:29.993Z,25.30
2017-06-03T23:33:58.152Z,19.70
2017-06-03T23:36:26.259Z,19.40
2017-06-03T23:38:54.347Z,19.23
2017-06-03T23:41:22.423Z,19.53
2017-06-03T23:43:50.507Z,19.53
2017-06-03T23:46:18.584Z,18.20
2017-06-03T23:48:46.675Z,17.40
2017-06-03T23:51:14.940Z,18.03
2017-06-03T23:53:43.028Z,21.73
2017-06-03T23:56:11.112Z,17.63
2017-06-03T23:58:39.976Z,19.73
